sensor_id;sensor_type;location;lat;lon;timestamp;temperature;humidity
38333;DHT22;25748;46.670;14.272;2022-09-09T00:06:28;15.80;87.90
38333;DHT22;25748;46.670;14.272;2022-09-09T00:09:19;15.80;87.80
38333;DHT22;25748;46.670;14.272;2022-09-09T00:17:04;15.70;88.40
38333;DHT22;25748;46.670;14.272;2022-09-09T00:19:50;15.70;88.50
38333;DHT22;25748;46.670;14.272;2022-09-09T00:22:21;15.60;88.50
38333;DHT22;25748;46.670;14.272;2022-09-09T00:24:55;15.70;88.40
38333;DHT22;25748;46.670;14.272;2022-09-09T00:27:45;15.60;88.30
38333;DHT22;25748;46.670;14.272;2022-09-09T00:30:22;15.60;88.20
38333;DHT22;25748;46.670;14.272;2022-09-09T00:32:53;15.70;88.30
38333;DHT22;25748;46.670;14.272;2022-09-09T00:35:34;15.60;88.10
38333;DHT22;25748;46.670;14.272;2022-09-09T00:38:08;15.70;88.10
38333;DHT22;25748;46.670;14.272;2022-09-09T00:40:48;15.70;88.00
38333;DHT22;25748;46.670;14.272;2022-09-09T00:43:29;15.70;88.00
38333;DHT22;25748;46.670;14.272;2022-09-09T00:52:51;15.60;88.20
38333;DHT22;25748;46.670;14.272;2022-09-09T00:57:36;15.60;88.40
38333;DHT22;25748;46.670;14.272;2022-09-09T01:11:13;15.50;88.70
38333;DHT22;25748;46.670;14.272;2022-09-09T01:13:41;15.60;88.60
38333;DHT22;25748;46.670;14.272;2022-09-09T01:16:10;15.50;88.50
38333;DHT22;25748;46.670;14.272;2022-09-09T01:18:44;15.60;88.50
38333;DHT22;25748;46.670;14.272;2022-09-09T01:26:45;15.60;88.70
38333;DHT22;25748;46.670;14.272;2022-09-09T01:29:16;15.60;88.80
38333;DHT22;25748;46.670;14.272;2022-09-09T01:31:53;15.60;88.80
38333;DHT22;25748;46.670;14.272;2022-09-09T01:34:20;15.60;89.10
38333;DHT22;25748;46.670;14.272;2022-09-09T01:39:16;15.60;89.00
38333;DHT22;25748;46.670;14.272;2022-09-09T01:41:42;15.60;89.10
38333;DHT22;25748;46.670;14.272;2022-09-09T01:44:08;15.60;89.10
38333;DHT22;25748;46.670;14.272;2022-09-09T01:46:35;15.60;89.20
38333;DHT22;25748;46.670;14.272;2022-09-09T01:49:02;15.70;89.30
38333;DHT22;25748;46.670;14.272;2022-09-09T01:51:29;15.70;89.30
38333;DHT22;25748;46.670;14.272;2022-09-09T01:53:55;15.70;89.40
38333;DHT22;25748;46.670;14.272;2022-09-09T02:02:23;15.70;89.40
38333;DHT22;25748;46.670;14.272;2022-09-09T02:04:56;15.70;89.30
38333;DHT22;25748;46.670;14.272;2022-09-09T02:07:41;15.70;89.40
38333;DHT22;25748;46.670;14.272;2022-09-09T02:11:06;15.60;89.20
38333;DHT22;25748;46.670;14.272;2022-09-09T02:13:11;15.60;89.20
38333;DHT22;25748;46.670;14.272;2022-09-09T02:15:54;15.70;89.10
38333;DHT22;25748;46.670;14.272;2022-09-09T02:18:26;15.60;89.00
38333;DHT22;25748;46.670;14.272;2022-09-09T02:20:53;15.60;88.80
38333;DHT22;25748;46.670;14.272;2022-09-09T02:23:19;15.60;88.70
38333;DHT22;25748;46.670;14.272;2022-09-09T02:25:46;15.60;88.60
38333;DHT22;25748;46.670;14.272;2022-09-09T02:28:14;15.50;88.30
38333;DHT22;25748;46.670;14.272;2022-09-09T02:30:41;15.50;88.50
38333;DHT22;25748;46.670;14.272;2022-09-09T02:33:09;15.50;88.50
38333;DHT22;25748;46.670;14.272;2022-09-09T02:35:36;15.40;88.10
38333;DHT22;25748;46.670;14.272;2022-09-09T02:38:07;15.40;88.60
38333;DHT22;25748;46.670;14.272;2022-09-09T02:40:33;15.30;89.00
38333;DHT22;25748;46.670;14.272;2022-09-09T02:42:59;15.30;89.10
38333;DHT22;25748;46.670;14.272;2022-09-09T02:45:34;15.30;89.20
38333;DHT22;25748;46.670;14.272;2022-09-09T02:50:43;15.20;88.40
38333;DHT22;25748;46.670;14.272;2022-09-09T02:53:16;15.20;88.50
38333;DHT22;25748;46.670;14.272;2022-09-09T02:55:48;15.20;88.50
38333;DHT22;25748;46.670;14.272;2022-09-09T02:58:17;15.20;88.30
38333;DHT22;25748;46.670;14.272;2022-09-09T03:00:49;15.20;88.20
38333;DHT22;25748;46.670;14.272;2022-09-09T03:03:16;15.20;88.40
38333;DHT22;25748;46.670;14.272;2022-09-09T03:05:44;15.20;88.30
38333;DHT22;25748;46.670;14.272;2022-09-09T03:08:09;15.20;88.00
38333;DHT22;25748;46.670;14.272;2022-09-09T03:10:35;15.20;87.80
38333;DHT22;25748;46.670;14.272;2022-09-09T03:13:02;15.10;87.80
38333;DHT22;25748;46.670;14.272;2022-09-09T03:15:31;15.20;88.00
38333;DHT22;25748;46.670;14.272;2022-09-09T03:17:58;15.20;88.10
38333;DHT22;25748;46.670;14.272;2022-09-09T03:20:25;15.20;88.00
38333;DHT22;25748;46.670;14.272;2022-09-09T03:22:52;15.20;88.10
38333;DHT22;25748;46.670;14.272;2022-09-09T03:25:18;15.20;87.90
38333;DHT22;25748;46.670;14.272;2022-09-09T03:27:44;15.20;88.00
38333;DHT22;25748;46.670;14.272;2022-09-09T03:30:10;15.10;87.60
38333;DHT22;25748;46.670;14.272;2022-09-09T03:32:36;15.10;87.20
38333;DHT22;25748;46.670;14.272;2022-09-09T03:35:02;15.10;87.00
38333;DHT22;25748;46.670;14.272;2022-09-09T03:37:28;15.10;87.10
38333;DHT22;25748;46.670;14.272;2022-09-09T03:39:53;15.10;87.20
38333;DHT22;25748;46.670;14.272;2022-09-09T03:42:22;15.10;87.20
38333;DHT22;25748;46.670;14.272;2022-09-09T03:44:48;15.10;87.10
38333;DHT22;25748;46.670;14.272;2022-09-09T03:47:18;15.00;87.20
38333;DHT22;25748;46.670;14.272;2022-09-09T03:49:45;15.00;87.50
38333;DHT22;25748;46.670;14.272;2022-09-09T03:52:11;15.00;87.50
38333;DHT22;25748;46.670;14.272;2022-09-09T03:54:37;15.00;87.50
38333;DHT22;25748;46.670;14.272;2022-09-09T03:57:03;15.00;87.70
38333;DHT22;25748;46.670;14.272;2022-09-09T03:59:29;15.00;87.70
38333;DHT22;25748;46.670;14.272;2022-09-09T04:01:55;15.00;87.70
38333;DHT22;25748;46.670;14.272;2022-09-09T04:04:22;15.00;87.40
38333;DHT22;25748;46.670;14.272;2022-09-09T04:06:48;15.00;87.50
38333;DHT22;25748;46.670;14.272;2022-09-09T04:09:14;15.00;87.50
38333;DHT22;25748;46.670;14.272;2022-09-09T04:11:40;15.00;87.20
38333;DHT22;25748;46.670;14.272;2022-09-09T04:14:06;14.90;86.90
38333;DHT22;25748;46.670;14.272;2022-09-09T04:16:32;15.00;87.00
38333;DHT22;25748;46.670;14.272;2022-09-09T04:18:58;14.90;86.90
38333;DHT22;25748;46.670;14.272;2022-09-09T04:21:25;15.00;87.10
38333;DHT22;25748;46.670;14.272;2022-09-09T04:23:51;14.90;86.70
38333;DHT22;25748;46.670;14.272;2022-09-09T04:26:17;14.90;86.80
38333;DHT22;25748;46.670;14.272;2022-09-09T04:28:43;14.90;87.00
38333;DHT22;25748;46.670;14.272;2022-09-09T04:31:13;14.90;87.20
38333;DHT22;25748;46.670;14.272;2022-09-09T04:33:40;14.90;87.10
38333;DHT22;25748;46.670;14.272;2022-09-09T04:36:05;14.90;87.00
38333;DHT22;25748;46.670;14.272;2022-09-09T04:38:31;14.90;86.90
38333;DHT22;25748;46.670;14.272;2022-09-09T04:40:57;14.90;87.30
38333;DHT22;25748;46.670;14.272;2022-09-09T04:43:23;14.90;87.20
38333;DHT22;25748;46.670;14.272;2022-09-09T04:45:51;14.90;87.20
38333;DHT22;25748;46.670;14.272;2022-09-09T04:48:17;14.90;87.40
38333;DHT22;25748;46.670;14.272;2022-09-09T04:50:43;14.90;87.40
38333;DHT22;25748;46.670;14.272;2022-09-09T04:53:09;14.90;87.50
38333;DHT22;25748;46.670;14.272;2022-09-09T04:55:35;14.90;87.70
38333;DHT22;25748;46.670;14.272;2022-09-09T04:58:08;14.90;88.00
38333;DHT22;25748;46.670;14.272;2022-09-09T05:00:34;14.90;88.30
38333;DHT22;25748;46.670;14.272;2022-09-09T05:03:07;15.00;88.70
38333;DHT22;25748;46.670;14.272;2022-09-09T05:05:34;15.00;88.80
38333;DHT22;25748;46.670;14.272;2022-09-09T05:08:05;15.00;88.50
38333;DHT22;25748;46.670;14.272;2022-09-09T05:10:32;15.00;88.70
38333;DHT22;25748;46.670;14.272;2022-09-09T05:12:57;15.10;88.70
38333;DHT22;25748;46.670;14.272;2022-09-09T05:15:23;15.10;88.60
38333;DHT22;25748;46.670;14.272;2022-09-09T05:17:49;15.10;88.80
38333;DHT22;25748;46.670;14.272;2022-09-09T05:20:14;15.10;88.10
38333;DHT22;25748;46.670;14.272;2022-09-09T05:22:40;15.10;88.10
38333;DHT22;25748;46.670;14.272;2022-09-09T05:25:06;15.20;88.10
38333;DHT22;25748;46.670;14.272;2022-09-09T05:27:34;15.20;88.20
38333;DHT22;25748;46.670;14.272;2022-09-09T05:29:59;15.20;88.20
38333;DHT22;25748;46.670;14.272;2022-09-09T05:32:25;15.20;88.30
38333;DHT22;25748;46.670;14.272;2022-09-09T05:34:51;15.20;88.10
38333;DHT22;25748;46.670;14.272;2022-09-09T05:37:17;15.30;88.20
38333;DHT22;25748;46.670;14.272;2022-09-09T05:39:44;15.30;88.10
38333;DHT22;25748;46.670;14.272;2022-09-09T05:42:10;15.30;87.90
38333;DHT22;25748;46.670;14.272;2022-09-09T05:44:35;15.30;88.20
38333;DHT22;25748;46.670;14.272;2022-09-09T05:47:02;15.30;87.50
38333;DHT22;25748;46.670;14.272;2022-09-09T05:49:28;15.40;87.60
38333;DHT22;25748;46.670;14.272;2022-09-09T05:51:54;15.30;86.90
38333;DHT22;25748;46.670;14.272;2022-09-09T05:54:20;15.40;86.70
38333;DHT22;25748;46.670;14.272;2022-09-09T05:56:45;15.40;86.50
38333;DHT22;25748;46.670;14.272;2022-09-09T05:59:11;15.40;85.50
38333;DHT22;25748;46.670;14.272;2022-09-09T06:01:38;15.50;85.00
38333;DHT22;25748;46.670;14.272;2022-09-09T06:04:05;15.50;84.60
38333;DHT22;25748;46.670;14.272;2022-09-09T06:06:34;15.50;84.30
38333;DHT22;25748;46.670;14.272;2022-09-09T06:09:05;15.50;84.00
38333;DHT22;25748;46.670;14.272;2022-09-09T06:11:32;15.50;84.10
38333;DHT22;25748;46.670;14.272;2022-09-09T06:14:01;15.60;84.10
38333;DHT22;25748;46.670;14.272;2022-09-09T06:16:28;15.60;84.00
38333;DHT22;25748;46.670;14.272;2022-09-09T06:18:55;15.60;83.90
38333;DHT22;25748;46.670;14.272;2022-09-09T06:23:56;15.50;83.30
38333;DHT22;25748;46.670;14.272;2022-09-09T06:26:26;15.50;83.10
38333;DHT22;25748;46.670;14.272;2022-09-09T06:28:54;15.50;83.50
38333;DHT22;25748;46.670;14.272;2022-09-09T06:31:22;15.50;83.60
38333;DHT22;25748;46.670;14.272;2022-09-09T06:33:49;15.50;83.40
38333;DHT22;25748;46.670;14.272;2022-09-09T06:36:37;15.50;83.70
38333;DHT22;25748;46.670;14.272;2022-09-09T06:39:04;15.60;83.50
38333;DHT22;25748;46.670;14.272;2022-09-09T06:41:31;15.60;83.50
38333;DHT22;25748;46.670;14.272;2022-09-09T06:43:58;15.60;83.00
38333;DHT22;25748;46.670;14.272;2022-09-09T06:46:26;15.60;82.90
38333;DHT22;25748;46.670;14.272;2022-09-09T06:48:53;15.60;83.20
38333;DHT22;25748;46.670;14.272;2022-09-09T06:51:26;15.60;82.40
38333;DHT22;25748;46.670;14.272;2022-09-09T06:53:58;15.50;82.20
38333;DHT22;25748;46.670;14.272;2022-09-09T06:56:32;15.50;82.30
38333;DHT22;25748;46.670;14.272;2022-09-09T06:59:00;15.40;81.10
38333;DHT22;25748;46.670;14.272;2022-09-09T07:01:31;15.40;81.10
38333;DHT22;25748;46.670;14.272;2022-09-09T07:03:57;15.50;81.20
38333;DHT22;25748;46.670;14.272;2022-09-09T07:06:31;15.40;81.20
38333;DHT22;25748;46.670;14.272;2022-09-09T07:08:59;15.40;81.20
38333;DHT22;25748;46.670;14.272;2022-09-09T07:11:33;15.40;80.90
38333;DHT22;25748;46.670;14.272;2022-09-09T07:14:00;15.40;81.40
38333;DHT22;25748;46.670;14.272;2022-09-09T07:16:27;15.30;81.50
38333;DHT22;25748;46.670;14.272;2022-09-09T07:18:54;15.40;81.80
38333;DHT22;25748;46.670;14.272;2022-09-09T07:21:24;15.30;81.50
38333;DHT22;25748;46.670;14.272;2022-09-09T07:23:52;15.30;81.90
38333;DHT22;25748;46.670;14.272;2022-09-09T07:26:19;15.30;82.00
38333;DHT22;25748;46.670;14.272;2022-09-09T07:28:46;15.30;82.40
38333;DHT22;25748;46.670;14.272;2022-09-09T07:31:29;15.30;82.40
38333;DHT22;25748;46.670;14.272;2022-09-09T07:33:56;15.20;82.50
38333;DHT22;25748;46.670;14.272;2022-09-09T07:36:23;15.20;83.30
38333;DHT22;25748;46.670;14.272;2022-09-09T07:38:51;15.10;83.80
38333;DHT22;25748;46.670;14.272;2022-09-09T07:41:20;15.10;84.30
38333;DHT22;25748;46.670;14.272;2022-09-09T07:43:47;15.20;84.60
38333;DHT22;25748;46.670;14.272;2022-09-09T07:46:13;15.20;85.00
38333;DHT22;25748;46.670;14.272;2022-09-09T07:48:48;15.20;85.30
38333;DHT22;25748;46.670;14.272;2022-09-09T07:51:33;15.20;85.60
38333;DHT22;25748;46.670;14.272;2022-09-09T07:54:02;15.20;86.00
38333;DHT22;25748;46.670;14.272;2022-09-09T07:56:29;15.20;86.20
38333;DHT22;25748;46.670;14.272;2022-09-09T07:58:56;15.20;85.90
38333;DHT22;25748;46.670;14.272;2022-09-09T08:01:27;15.20;86.90
38333;DHT22;25748;46.670;14.272;2022-09-09T08:04:03;15.30;88.30
38333;DHT22;25748;46.670;14.272;2022-09-09T08:06:32;15.40;89.00
38333;DHT22;25748;46.670;14.272;2022-09-09T08:08:58;15.40;88.40
38333;DHT22;25748;46.670;14.272;2022-09-09T08:11:26;15.50;87.80
38333;DHT22;25748;46.670;14.272;2022-09-09T08:13:52;15.50;87.70
38333;DHT22;25748;46.670;14.272;2022-09-09T08:16:23;15.50;87.30
38333;DHT22;25748;46.670;14.272;2022-09-09T08:18:53;15.50;87.40
38333;DHT22;25748;46.670;14.272;2022-09-09T08:21:22;15.50;87.10
38333;DHT22;25748;46.670;14.272;2022-09-09T08:23:51;15.50;86.70
38333;DHT22;25748;46.670;14.272;2022-09-09T08:26:19;15.60;86.60
38333;DHT22;25748;46.670;14.272;2022-09-09T08:28:46;15.50;86.50
38333;DHT22;25748;46.670;14.272;2022-09-09T08:31:21;15.50;86.40
38333;DHT22;25748;46.670;14.272;2022-09-09T08:33:47;15.50;86.90
38333;DHT22;25748;46.670;14.272;2022-09-09T08:36:19;15.50;86.90
38333;DHT22;25748;46.670;14.272;2022-09-09T08:38:49;15.50;87.20
38333;DHT22;25748;46.670;14.272;2022-09-09T08:46:51;15.40;86.30
38333;DHT22;25748;46.670;14.272;2022-09-09T08:49:28;15.40;86.50
38333;DHT22;25748;46.670;14.272;2022-09-09T08:51:56;15.40;86.80
38333;DHT22;25748;46.670;14.272;2022-09-09T08:54:23;15.40;87.00
38333;DHT22;25748;46.670;14.272;2022-09-09T08:56:50;15.40;87.00
38333;DHT22;25748;46.670;14.272;2022-09-09T08:59:17;15.40;87.10
38333;DHT22;25748;46.670;14.272;2022-09-09T09:10:36;15.40;87.10
38333;DHT22;25748;46.670;14.272;2022-09-09T09:13:18;15.40;86.90
38333;DHT22;25748;46.670;14.272;2022-09-09T09:15:49;15.30;87.30
38333;DHT22;25748;46.670;14.272;2022-09-09T09:18:17;15.40;87.20
38333;DHT22;25748;46.670;14.272;2022-09-09T09:20:46;15.40;87.40
38333;DHT22;25748;46.670;14.272;2022-09-09T09:23:45;15.40;86.80
38333;DHT22;25748;46.670;14.272;2022-09-09T09:26:14;15.40;86.50
38333;DHT22;25748;46.670;14.272;2022-09-09T09:28:40;15.40;86.50
38333;DHT22;25748;46.670;14.272;2022-09-09T09:31:09;15.40;86.40
38333;DHT22;25748;46.670;14.272;2022-09-09T09:33:54;15.40;86.50
38333;DHT22;25748;46.670;14.272;2022-09-09T09:36:24;15.40;85.90
38333;DHT22;25748;46.670;14.272;2022-09-09T09:38:59;15.40;86.30
38333;DHT22;25748;46.670;14.272;2022-09-09T09:41:40;15.40;86.50
38333;DHT22;25748;46.670;14.272;2022-09-09T09:44:23;15.40;86.40
38333;DHT22;25748;46.670;14.272;2022-09-09T09:46:50;15.40;86.30
38333;DHT22;25748;46.670;14.272;2022-09-09T09:49:15;15.40;86.40
38333;DHT22;25748;46.670;14.272;2022-09-09T09:51:42;15.40;86.50
38333;DHT22;25748;46.670;14.272;2022-09-09T09:54:22;15.40;86.50
38333;DHT22;25748;46.670;14.272;2022-09-09T09:56:50;15.40;86.30
38333;DHT22;25748;46.670;14.272;2022-09-09T10:01:54;15.50;86.30
38333;DHT22;25748;46.670;14.272;2022-09-09T10:04:22;15.60;86.60
38333;DHT22;25748;46.670;14.272;2022-09-09T10:06:49;15.60;86.60
38333;DHT22;25748;46.670;14.272;2022-09-09T10:09:26;15.70;86.60
38333;DHT22;25748;46.670;14.272;2022-09-09T10:12:20;15.70;86.50
38333;DHT22;25748;46.670;14.272;2022-09-09T10:22:39;15.80;86.00
38333;DHT22;25748;46.670;14.272;2022-09-09T10:25:34;15.80;85.80
38333;DHT22;25748;46.670;14.272;2022-09-09T10:28:16;15.80;85.80
38333;DHT22;25748;46.670;14.272;2022-09-09T10:36:24;15.90;86.30
38333;DHT22;25748;46.670;14.272;2022-09-09T10:41:55;15.90;86.00
38333;DHT22;25748;46.670;14.272;2022-09-09T10:44:53;16.00;85.60
38333;DHT22;25748;46.670;14.272;2022-09-09T10:47:44;16.00;85.00
38333;DHT22;25748;46.670;14.272;2022-09-09T10:55:42;16.00;84.00
38333;DHT22;25748;46.670;14.272;2022-09-09T10:58:18;16.00;84.40
38333;DHT22;25748;46.670;14.272;2022-09-09T11:00:57;16.00;84.60
38333;DHT22;25748;46.670;14.272;2022-09-09T11:03:29;16.00;85.10
38333;DHT22;25748;46.670;14.272;2022-09-09T11:08:31;16.00;84.70
38333;DHT22;25748;46.670;14.272;2022-09-09T11:16:33;16.10;86.10
38333;DHT22;25748;46.670;14.272;2022-09-09T11:21:48;16.10;85.90
38333;DHT22;25748;46.670;14.272;2022-09-09T11:24:26;16.10;85.80
38333;DHT22;25748;46.670;14.272;2022-09-09T11:27:02;16.10;85.60
38333;DHT22;25748;46.670;14.272;2022-09-09T11:35:19;16.20;85.50
38333;DHT22;25748;46.670;14.272;2022-09-09T11:40:23;16.30;85.90
38333;DHT22;25748;46.670;14.272;2022-09-09T11:42:49;16.30;86.00
38333;DHT22;25748;46.670;14.272;2022-09-09T11:45:27;16.50;86.20
38333;DHT22;25748;46.670;14.272;2022-09-09T11:47:59;16.60;85.70
38333;DHT22;25748;46.670;14.272;2022-09-09T11:50:27;16.80;85.80
38333;DHT22;25748;46.670;14.272;2022-09-09T11:55:40;16.90;83.20
38333;DHT22;25748;46.670;14.272;2022-09-09T11:58:14;16.90;81.70
38333;DHT22;25748;46.670;14.272;2022-09-09T12:00:42;17.00;82.00
38333;DHT22;25748;46.670;14.272;2022-09-09T12:03:35;17.00;82.30
38333;DHT22;25748;46.670;14.272;2022-09-09T12:06:16;17.10;83.30
38333;DHT22;25748;46.670;14.272;2022-09-09T12:08:46;17.20;83.30
38333;DHT22;25748;46.670;14.272;2022-09-09T12:11:27;17.20;82.20
38333;DHT22;25748;46.670;14.272;2022-09-09T12:13:55;17.20;82.00
38333;DHT22;25748;46.670;14.272;2022-09-09T12:16:35;17.20;81.60
38333;DHT22;25748;46.670;14.272;2022-09-09T12:19:22;17.20;80.80
38333;DHT22;25748;46.670;14.272;2022-09-09T12:21:54;17.20;80.60
38333;DHT22;25748;46.670;14.272;2022-09-09T12:24:49;17.20;80.40
38333;DHT22;25748;46.670;14.272;2022-09-09T12:27:40;17.20;80.90
38333;DHT22;25748;46.670;14.272;2022-09-09T12:30:14;17.20;80.90
38333;DHT22;25748;46.670;14.272;2022-09-09T12:32:40;17.30;81.10
38333;DHT22;25748;46.670;14.272;2022-09-09T12:35:17;17.30;81.10
38333;DHT22;25748;46.670;14.272;2022-09-09T12:37:52;17.30;81.30
38333;DHT22;25748;46.670;14.272;2022-09-09T12:40:21;17.40;81.20
38333;DHT22;25748;46.670;14.272;2022-09-09T12:42:47;17.60;81.60
38333;DHT22;25748;46.670;14.272;2022-09-09T12:45:27;17.80;81.50
38333;DHT22;25748;46.670;14.272;2022-09-09T12:48:03;18.00;81.50
38333;DHT22;25748;46.670;14.272;2022-09-09T12:50:33;18.20;80.90
38333;DHT22;25748;46.670;14.272;2022-09-09T12:53:12;18.30;78.90
38333;DHT22;25748;46.670;14.272;2022-09-09T12:55:51;18.20;77.10
38333;DHT22;25748;46.670;14.272;2022-09-09T12:58:19;18.30;76.90
38333;DHT22;25748;46.670;14.272;2022-09-09T13:00:53;18.40;76.20
38333;DHT22;25748;46.670;14.272;2022-09-09T13:03:22;18.30;74.70
38333;DHT22;25748;46.670;14.272;2022-09-09T13:05:49;18.30;75.00
38333;DHT22;25748;46.670;14.272;2022-09-09T13:08:16;18.50;75.00
38333;DHT22;25748;46.670;14.272;2022-09-09T13:10:56;18.80;75.00
38333;DHT22;25748;46.670;14.272;2022-09-09T13:13:28;18.80;72.90
38333;DHT22;25748;46.670;14.272;2022-09-09T13:15:59;18.90;72.80
38333;DHT22;25748;46.670;14.272;2022-09-09T13:18:34;19.00;72.20
38333;DHT22;25748;46.670;14.272;2022-09-09T13:21:00;19.10;72.70
38333;DHT22;25748;46.670;14.272;2022-09-09T13:23:32;19.10;71.50
38333;DHT22;25748;46.670;14.272;2022-09-09T13:26:23;19.10;70.60
38333;DHT22;25748;46.670;14.272;2022-09-09T13:28:48;19.00;70.40
38333;DHT22;25748;46.670;14.272;2022-09-09T13:33:48;18.90;70.10
38333;DHT22;25748;46.670;14.272;2022-09-09T13:36:14;18.90;69.90
38333;DHT22;25748;46.670;14.272;2022-09-09T13:38:53;18.80;70.30
38333;DHT22;25748;46.670;14.272;2022-09-09T13:41:32;18.80;72.30
38333;DHT22;25748;46.670;14.272;2022-09-09T13:43:59;18.80;73.70
38333;DHT22;25748;46.670;14.272;2022-09-09T13:53:56;19.50;70.60
38333;DHT22;25748;46.670;14.272;2022-09-09T13:56:23;19.60;68.80
38333;DHT22;25748;46.670;14.272;2022-09-09T13:58:49;19.60;67.90
38333;DHT22;25748;46.670;14.272;2022-09-09T14:01:15;19.60;67.10
38333;DHT22;25748;46.670;14.272;2022-09-09T14:03:41;19.70;67.50
38333;DHT22;25748;46.670;14.272;2022-09-09T14:06:06;19.60;66.60
38333;DHT22;25748;46.670;14.272;2022-09-09T14:08:32;19.60;66.70
38333;DHT22;25748;46.670;14.272;2022-09-09T14:11:03;19.60;67.20
38333;DHT22;25748;46.670;14.272;2022-09-09T14:13:29;19.60;66.80
38333;DHT22;25748;46.670;14.272;2022-09-09T14:15:55;19.50;67.50
38333;DHT22;25748;46.670;14.272;2022-09-09T14:18:20;19.50;67.90
38333;DHT22;25748;46.670;14.272;2022-09-09T14:20:48;19.50;68.10
38333;DHT22;25748;46.670;14.272;2022-09-09T14:23:16;19.50;68.40
38333;DHT22;25748;46.670;14.272;2022-09-09T14:25:42;19.60;68.50
38333;DHT22;25748;46.670;14.272;2022-09-09T14:28:15;19.60;67.60
38333;DHT22;25748;46.670;14.272;2022-09-09T14:30:42;19.60;68.00
38333;DHT22;25748;46.670;14.272;2022-09-09T14:33:10;19.60;67.40
38333;DHT22;25748;46.670;14.272;2022-09-09T14:35:36;19.60;66.60
38333;DHT22;25748;46.670;14.272;2022-09-09T14:38:04;19.60;66.00
38333;DHT22;25748;46.670;14.272;2022-09-09T14:40:30;19.50;67.10
38333;DHT22;25748;46.670;14.272;2022-09-09T14:42:56;19.50;67.60
38333;DHT22;25748;46.670;14.272;2022-09-09T14:45:23;19.50;67.80
38333;DHT22;25748;46.670;14.272;2022-09-09T14:47:50;19.50;68.80
38333;DHT22;25748;46.670;14.272;2022-09-09T14:50:17;19.50;68.20
38333;DHT22;25748;46.670;14.272;2022-09-09T14:52:43;19.50;68.40
38333;DHT22;25748;46.670;14.272;2022-09-09T14:55:09;19.50;68.30
38333;DHT22;25748;46.670;14.272;2022-09-09T14:57:36;19.50;68.50
38333;DHT22;25748;46.670;14.272;2022-09-09T15:00:05;19.50;68.30
38333;DHT22;25748;46.670;14.272;2022-09-09T15:02:32;19.40;68.40
38333;DHT22;25748;46.670;14.272;2022-09-09T15:04:57;19.40;68.90
38333;DHT22;25748;46.670;14.272;2022-09-09T15:07:24;19.50;69.60
38333;DHT22;25748;46.670;14.272;2022-09-09T15:09:50;19.40;69.50
38333;DHT22;25748;46.670;14.272;2022-09-09T15:12:15;19.40;69.50
38333;DHT22;25748;46.670;14.272;2022-09-09T15:14:44;19.40;69.90
38333;DHT22;25748;46.670;14.272;2022-09-09T15:17:10;19.40;70.60
38333;DHT22;25748;46.670;14.272;2022-09-09T15:19:36;19.30;70.40
38333;DHT22;25748;46.670;14.272;2022-09-09T15:22:04;19.30;70.20
38333;DHT22;25748;46.670;14.272;2022-09-09T15:24:32;19.30;70.20
38333;DHT22;25748;46.670;14.272;2022-09-09T15:26:58;19.20;69.80
38333;DHT22;25748;46.670;14.272;2022-09-09T15:29:24;19.20;70.30
38333;DHT22;25748;46.670;14.272;2022-09-09T15:31:50;19.10;71.00
38333;DHT22;25748;46.670;14.272;2022-09-09T15:34:17;19.00;70.90
38333;DHT22;25748;46.670;14.272;2022-09-09T15:36:44;19.00;70.80
38333;DHT22;25748;46.670;14.272;2022-09-09T15:39:16;18.80;71.10
38333;DHT22;25748;46.670;14.272;2022-09-09T15:41:43;18.80;71.70
38333;DHT22;25748;46.670;14.272;2022-09-09T15:44:10;18.80;72.00
38333;DHT22;25748;46.670;14.272;2022-09-09T15:46:45;18.70;72.70
38333;DHT22;25748;46.670;14.272;2022-09-09T15:49:15;18.70;72.60
38333;DHT22;25748;46.670;14.272;2022-09-09T15:51:50;18.60;72.90
38333;DHT22;25748;46.670;14.272;2022-09-09T15:54:18;18.60;73.20
38333;DHT22;25748;46.670;14.272;2022-09-09T15:56:45;18.50;73.30
38333;DHT22;25748;46.670;14.272;2022-09-09T15:59:11;18.50;73.70
38333;DHT22;25748;46.670;14.272;2022-09-09T16:01:38;18.50;73.80
38333;DHT22;25748;46.670;14.272;2022-09-09T16:04:08;18.40;74.10
38333;DHT22;25748;46.670;14.272;2022-09-09T16:06:34;18.40;74.10
38333;DHT22;25748;46.670;14.272;2022-09-09T16:09:01;18.40;74.20
38333;DHT22;25748;46.670;14.272;2022-09-09T16:11:33;18.40;74.50
38333;DHT22;25748;46.670;14.272;2022-09-09T16:13:59;18.40;75.10
38333;DHT22;25748;46.670;14.272;2022-09-09T16:16:27;18.40;75.20
38333;DHT22;25748;46.670;14.272;2022-09-09T16:18:58;18.30;75.70
38333;DHT22;25748;46.670;14.272;2022-09-09T16:22:02;18.30;76.10
38333;DHT22;25748;46.670;14.272;2022-09-09T16:24:21;18.20;76.50
38333;DHT22;25748;46.670;14.272;2022-09-09T16:26:49;18.20;76.90
38333;DHT22;25748;46.670;14.272;2022-09-09T16:29:17;18.10;76.90
38333;DHT22;25748;46.670;14.272;2022-09-09T16:31:44;18.10;77.40
38333;DHT22;25748;46.670;14.272;2022-09-09T16:34:10;18.00;77.60
38333;DHT22;25748;46.670;14.272;2022-09-09T16:36:38;18.00;78.00
38333;DHT22;25748;46.670;14.272;2022-09-09T16:39:15;18.00;78.10
38333;DHT22;25748;46.670;14.272;2022-09-09T16:41:42;17.90;78.00
38333;DHT22;25748;46.670;14.272;2022-09-09T16:44:10;17.90;78.40
38333;DHT22;25748;46.670;14.272;2022-09-09T16:46:39;17.90;78.60
38333;DHT22;25748;46.670;14.272;2022-09-09T16:49:08;17.90;79.30
38333;DHT22;25748;46.670;14.272;2022-09-09T16:51:37;17.80;78.90
38333;DHT22;25748;46.670;14.272;2022-09-09T16:54:05;17.90;79.20
38333;DHT22;25748;46.670;14.272;2022-09-09T16:56:40;17.80;79.20
38333;DHT22;25748;46.670;14.272;2022-09-09T16:59:18;17.80;79.70
38333;DHT22;25748;46.670;14.272;2022-09-09T17:01:46;17.80;80.30
38333;DHT22;25748;46.670;14.272;2022-09-09T17:04:18;17.70;80.70
38333;DHT22;25748;46.670;14.272;2022-09-09T17:06:50;17.70;80.80
38333;DHT22;25748;46.670;14.272;2022-09-09T17:09:16;17.70;80.80
38333;DHT22;25748;46.670;14.272;2022-09-09T17:11:43;17.70;80.90
38333;DHT22;25748;46.670;14.272;2022-09-09T17:14:17;17.70;81.00
38333;DHT22;25748;46.670;14.272;2022-09-09T17:16:43;17.70;81.20
38333;DHT22;25748;46.670;14.272;2022-09-09T17:19:09;17.60;81.80
38333;DHT22;25748;46.670;14.272;2022-09-09T17:21:36;17.60;81.60
38333;DHT22;25748;46.670;14.272;2022-09-09T17:24:02;17.60;81.70
38333;DHT22;25748;46.670;14.272;2022-09-09T17:26:30;17.60;81.70
38333;DHT22;25748;46.670;14.272;2022-09-09T17:28:57;17.60;81.80
38333;DHT22;25748;46.670;14.272;2022-09-09T17:31:38;17.50;82.10
38333;DHT22;25748;46.670;14.272;2022-09-09T17:34:11;17.50;81.80